Kezdőlap
METAR-TAF:

METAR-TAF

Repülőterek :

Wattay nemzetközi repülőtér

Vientián, Laosz

földrajzi szélesség: 17-57N, földrajzi hosszúság: 102-34E, magasság: 171 m

Jelenlegi meteorológiai megfigyelések

A jelentés 4 órával és 13 perccel ezelõtt készült, 16:30 UTC
Délnyugati szél 2 kt
Hőmérséklet 27°C
Páratartalom 89%
Légköri nyomás 1009 hPa
Látótávolság: 4000 m
Kevés felhő 4000 lábon
Párásság

METAR: VLVT 231630Z 22002KT 4000 BR FEW040 27/25 Q1009 NOSIG

Idő: 03:43 (20:43 UTC)

Előrejelzés

A jelentés 3 órával és 43 perccel ezelõtt készült, 17:00 UTC
Az előrejelzés 23-én 18 óra UTC és 24-én 18 óra UTC között érvényes
Délkeleti szél 4 kt
Látótávolság 10 km, vagy több
Szórványos felhőzet 2000 lábon
Szórványos felhőzet 5000 lábon
23-én 18 óra UTC és 23-én 22 óra UTC között ideiglenes
Látótávolság: 4000 m
Szakadozott felhőzet 4000 lábon
Párásság

TAF: VLVT 231700Z 2318/2418 14004KT 9999 SCT020 SCT050 TEMPO 2318/2322 4000 BR BKN040

Meteorológiai megfigyelések és előrejelzések több, mint 4000 repülőtéren (METAR és TAF jelentéseket).

A térképen piros és sárga pontok jelzik az elérhető meteorológiai állomásokat.

Mozgassa az egeret a pont fölött, hogy megjelenjen az állomás neve.

Azután kattintson az időjárási megfigyelések és előrejelzések megtekintéséhez.

A térkép megváltoztatása: kattintson a fekete keresztel jelölt zöld gombra ráközelítéshez, a vonallal jelölt zöld gombra távolításhoz, vagy a zöld nyilakra a szomszédos térképek eléréséhez.


METAR-TAF: